Alquina, Indiana
Current Conditions -  °F | °C
As of 6:35 AM on Thursday 27 Nov 2014 (Local Time) from KI67 Reporting Station
Overcast Overcast  
Wind Chill: 23°   Ceiling: 3200
Heat Index: 30°   Visibility: 10mi
Dew Point: 25°   Wind: 7mph
Humidity: 80%   Direction: 320°NW
Pressure: 30.18"   Gusts: NA
Location:  39.645°N, 85.1744°W
Report Text: KI67 271135Z AUTO 32006KT 10SM OVC032 M01/M04 A3018 RMK AO1
Loading
Personal Weather Stations






























Interactive Weather Map New forecast layout! Learn more

10-Day Weather Forecast

Advertisements
Track Severe Weather on mobile